sensor_id;sensor_type;location;lat;lon;timestamp;temperature;humidity
13436;DHT22;6790;49.520;8.504;2023-07-31T00:00:27;19.30;99.90
13436;DHT22;6790;49.520;8.504;2023-07-31T00:02:53;19.40;99.90
13436;DHT22;6790;49.520;8.504;2023-07-31T00:05:19;19.40;99.90
13436;DHT22;6790;49.520;8.504;2023-07-31T00:07:45;19.40;99.90
13436;DHT22;6790;49.520;8.504;2023-07-31T00:10:11;19.40;99.90
13436;DHT22;6790;49.520;8.504;2023-07-31T00:12:42;19.30;99.90
13436;DHT22;6790;49.520;8.504;2023-07-31T00:15:09;19.30;99.90
13436;DHT22;6790;49.520;8.504;2023-07-31T00:17:36;19.20;99.90
13436;DHT22;6790;49.520;8.504;2023-07-31T00:20:02;19.20;99.90
13436;DHT22;6790;49.520;8.504;2023-07-31T00:22:28;19.10;99.90
13436;DHT22;6790;49.520;8.504;2023-07-31T00:24:53;19.00;99.90
13436;DHT22;6790;49.520;8.504;2023-07-31T00:27:19;19.00;99.90
13436;DHT22;6790;49.520;8.504;2023-07-31T00:29:45;19.00;99.90
13436;DHT22;6790;49.520;8.504;2023-07-31T00:32:10;19.00;99.90
13436;DHT22;6790;49.520;8.504;2023-07-31T00:34:36;18.90;99.90
13436;DHT22;6790;49.520;8.504;2023-07-31T00:37:02;18.90;99.90
13436;DHT22;6790;49.520;8.504;2023-07-31T00:39:30;18.90;99.90
13436;DHT22;6790;49.520;8.504;2023-07-31T00:41:56;18.80;99.90
13436;DHT22;6790;49.520;8.504;2023-07-31T00:44:22;18.80;99.90
13436;DHT22;6790;49.520;8.504;2023-07-31T00:46:48;18.70;99.90
13436;DHT22;6790;49.520;8.504;2023-07-31T00:49:15;18.60;99.90
13436;DHT22;6790;49.520;8.504;2023-07-31T00:51:41;18.60;99.90
13436;DHT22;6790;49.520;8.504;2023-07-31T00:54:07;18.50;99.90
13436;DHT22;6790;49.520;8.504;2023-07-31T00:56:33;18.50;99.90
13436;DHT22;6790;49.520;8.504;2023-07-31T00:58:59;18.40;99.90
13436;DHT22;6790;49.520;8.504;2023-07-31T01:01:24;18.40;99.90
13436;DHT22;6790;49.520;8.504;2023-07-31T01:03:51;18.50;99.90
13436;DHT22;6790;49.520;8.504;2023-07-31T01:06:44;18.40;99.90
13436;DHT22;6790;49.520;8.504;2023-07-31T01:12:09;18.40;99.90
13436;DHT22;6790;49.520;8.504;2023-07-31T01:14:38;18.30;99.90
13436;DHT22;6790;49.520;8.504;2023-07-31T01:17:04;18.30;99.90
13436;DHT22;6790;49.520;8.504;2023-07-31T01:19:30;18.40;99.90
13436;DHT22;6790;49.520;8.504;2023-07-31T01:22:30;18.30;99.90
13436;DHT22;6790;49.520;8.504;2023-07-31T01:28:37;18.20;99.90
13436;DHT22;6790;49.520;8.504;2023-07-31T01:31:10;18.20;99.90
13436;DHT22;6790;49.520;8.504;2023-07-31T01:33:39;18.20;99.90
13436;DHT22;6790;49.520;8.504;2023-07-31T01:36:05;18.20;99.90
13436;DHT22;6790;49.520;8.504;2023-07-31T01:38:31;18.10;99.90
13436;DHT22;6790;49.520;8.504;2023-07-31T01:40:57;18.10;99.90
13436;DHT22;6790;49.520;8.504;2023-07-31T01:43:22;18.00;99.90
13436;DHT22;6790;49.520;8.504;2023-07-31T01:45:49;18.00;99.90
13436;DHT22;6790;49.520;8.504;2023-07-31T01:48:15;18.10;99.90
13436;DHT22;6790;49.520;8.504;2023-07-31T01:50:41;18.00;99.90
13436;DHT22;6790;49.520;8.504;2023-07-31T01:53:06;18.00;99.90
13436;DHT22;6790;49.520;8.504;2023-07-31T01:55:32;18.00;99.90
13436;DHT22;6790;49.520;8.504;2023-07-31T01:57:58;18.00;99.90
13436;DHT22;6790;49.520;8.504;2023-07-31T02:00:23;18.00;99.90
13436;DHT22;6790;49.520;8.504;2023-07-31T02:02:49;18.00;99.90
13436;DHT22;6790;49.520;8.504;2023-07-31T02:05:15;18.00;99.90
13436;DHT22;6790;49.520;8.504;2023-07-31T02:07:40;18.00;99.90
13436;DHT22;6790;49.520;8.504;2023-07-31T02:10:06;18.00;99.90
13436;DHT22;6790;49.520;8.504;2023-07-31T02:12:32;18.00;99.90
13436;DHT22;6790;49.520;8.504;2023-07-31T02:14:58;18.00;99.90
13436;DHT22;6790;49.520;8.504;2023-07-31T02:17:24;18.00;99.90
13436;DHT22;6790;49.520;8.504;2023-07-31T02:19:50;18.00;99.90
13436;DHT22;6790;49.520;8.504;2023-07-31T02:22:16;18.00;99.90
13436;DHT22;6790;49.520;8.504;2023-07-31T02:24:41;17.90;99.90
13436;DHT22;6790;49.520;8.504;2023-07-31T02:27:07;17.90;99.90
13436;DHT22;6790;49.520;8.504;2023-07-31T02:29:33;17.90;99.90
13436;DHT22;6790;49.520;8.504;2023-07-31T02:31:58;17.90;99.90
13436;DHT22;6790;49.520;8.504;2023-07-31T02:34:24;17.90;99.90
13436;DHT22;6790;49.520;8.504;2023-07-31T02:36:50;17.90;99.90
13436;DHT22;6790;49.520;8.504;2023-07-31T02:39:15;17.90;99.90
13436;DHT22;6790;49.520;8.504;2023-07-31T02:41:41;17.90;99.90
13436;DHT22;6790;49.520;8.504;2023-07-31T02:44:06;17.80;99.90
13436;DHT22;6790;49.520;8.504;2023-07-31T02:46:32;17.80;99.90
13436;DHT22;6790;49.520;8.504;2023-07-31T02:48:58;17.80;99.90
13436;DHT22;6790;49.520;8.504;2023-07-31T02:51:23;17.80;99.90
13436;DHT22;6790;49.520;8.504;2023-07-31T02:53:49;17.70;99.90
13436;DHT22;6790;49.520;8.504;2023-07-31T02:56:15;17.70;99.90
13436;DHT22;6790;49.520;8.504;2023-07-31T02:58:40;17.70;99.90
13436;DHT22;6790;49.520;8.504;2023-07-31T03:01:06;17.70;99.90
13436;DHT22;6790;49.520;8.504;2023-07-31T03:03:32;17.70;99.90
13436;DHT22;6790;49.520;8.504;2023-07-31T03:05:58;17.70;99.90
13436;DHT22;6790;49.520;8.504;2023-07-31T03:08:23;17.70;99.90
13436;DHT22;6790;49.520;8.504;2023-07-31T03:10:49;17.70;99.90
13436;DHT22;6790;49.520;8.504;2023-07-31T03:13:15;17.70;99.90
13436;DHT22;6790;49.520;8.504;2023-07-31T03:15:43;17.70;99.90
13436;DHT22;6790;49.520;8.504;2023-07-31T03:18:09;17.70;99.90
13436;DHT22;6790;49.520;8.504;2023-07-31T03:20:35;17.70;99.90
13436;DHT22;6790;49.520;8.504;2023-07-31T03:23:00;17.70;99.90
13436;DHT22;6790;49.520;8.504;2023-07-31T03:25:26;17.70;99.90
13436;DHT22;6790;49.520;8.504;2023-07-31T03:27:52;17.70;99.90
13436;DHT22;6790;49.520;8.504;2023-07-31T03:30:17;17.70;99.90
13436;DHT22;6790;49.520;8.504;2023-07-31T03:32:43;17.70;99.90
13436;DHT22;6790;49.520;8.504;2023-07-31T03:35:09;17.70;99.90
13436;DHT22;6790;49.520;8.504;2023-07-31T03:37:34;17.70;99.90
13436;DHT22;6790;49.520;8.504;2023-07-31T03:40:00;17.70;99.90
13436;DHT22;6790;49.520;8.504;2023-07-31T03:42:26;17.70;99.90
13436;DHT22;6790;49.520;8.504;2023-07-31T03:44:51;17.70;99.90
13436;DHT22;6790;49.520;8.504;2023-07-31T03:47:17;17.60;99.90
13436;DHT22;6790;49.520;8.504;2023-07-31T03:49:43;17.60;99.90
13436;DHT22;6790;49.520;8.504;2023-07-31T03:52:08;17.60;99.90
13436;DHT22;6790;49.520;8.504;2023-07-31T03:54:34;17.60;99.90
13436;DHT22;6790;49.520;8.504;2023-07-31T03:57:00;17.60;99.90
13436;DHT22;6790;49.520;8.504;2023-07-31T03:59:25;17.50;99.90
13436;DHT22;6790;49.520;8.504;2023-07-31T04:01:51;17.50;99.90
13436;DHT22;6790;49.520;8.504;2023-07-31T04:04:17;17.50;99.90
13436;DHT22;6790;49.520;8.504;2023-07-31T04:06:42;17.50;99.90
13436;DHT22;6790;49.520;8.504;2023-07-31T04:09:08;17.50;99.90
13436;DHT22;6790;49.520;8.504;2023-07-31T04:11:34;17.50;99.90
13436;DHT22;6790;49.520;8.504;2023-07-31T04:13:59;17.50;99.90
13436;DHT22;6790;49.520;8.504;2023-07-31T04:16:25;17.50;99.90
13436;DHT22;6790;49.520;8.504;2023-07-31T04:18:51;17.50;99.90
13436;DHT22;6790;49.520;8.504;2023-07-31T04:21:16;17.50;99.90
13436;DHT22;6790;49.520;8.504;2023-07-31T04:23:43;17.50;99.90
13436;DHT22;6790;49.520;8.504;2023-07-31T04:26:08;17.50;99.90
13436;DHT22;6790;49.520;8.504;2023-07-31T04:28:34;17.50;99.90
13436;DHT22;6790;49.520;8.504;2023-07-31T04:30:59;17.50;99.90
13436;DHT22;6790;49.520;8.504;2023-07-31T04:33:25;17.50;99.90
13436;DHT22;6790;49.520;8.504;2023-07-31T04:35:54;17.50;99.90
13436;DHT22;6790;49.520;8.504;2023-07-31T04:38:20;17.50;99.90
13436;DHT22;6790;49.520;8.504;2023-07-31T04:40:46;17.50;99.90
13436;DHT22;6790;49.520;8.504;2023-07-31T04:43:12;17.50;99.90
13436;DHT22;6790;49.520;8.504;2023-07-31T04:45:38;17.50;99.90
13436;DHT22;6790;49.520;8.504;2023-07-31T04:48:04;17.50;99.90
13436;DHT22;6790;49.520;8.504;2023-07-31T04:50:29;17.60;99.90
13436;DHT22;6790;49.520;8.504;2023-07-31T04:52:56;17.60;99.90
13436;DHT22;6790;49.520;8.504;2023-07-31T04:55:21;17.60;99.90
13436;DHT22;6790;49.520;8.504;2023-07-31T04:57:47;17.60;99.90
13436;DHT22;6790;49.520;8.504;2023-07-31T05:00:13;17.70;99.90
13436;DHT22;6790;49.520;8.504;2023-07-31T05:02:39;17.70;99.90
13436;DHT22;6790;49.520;8.504;2023-07-31T05:05:04;17.70;99.90
13436;DHT22;6790;49.520;8.504;2023-07-31T05:07:30;17.70;99.90
13436;DHT22;6790;49.520;8.504;2023-07-31T05:09:56;17.70;99.90
13436;DHT22;6790;49.520;8.504;2023-07-31T05:12:21;17.70;99.90
13436;DHT22;6790;49.520;8.504;2023-07-31T05:14:47;17.80;99.90
13436;DHT22;6790;49.520;8.504;2023-07-31T05:17:13;17.80;99.90
13436;DHT22;6790;49.520;8.504;2023-07-31T05:19:38;17.80;99.90
13436;DHT22;6790;49.520;8.504;2023-07-31T05:22:04;17.70;99.90
13436;DHT22;6790;49.520;8.504;2023-07-31T05:24:30;17.70;99.90
13436;DHT22;6790;49.520;8.504;2023-07-31T05:26:56;17.80;99.90
13436;DHT22;6790;49.520;8.504;2023-07-31T05:29:21;17.70;99.90
13436;DHT22;6790;49.520;8.504;2023-07-31T05:31:47;17.70;99.90
13436;DHT22;6790;49.520;8.504;2023-07-31T05:34:13;17.70;99.90
13436;DHT22;6790;49.520;8.504;2023-07-31T05:36:38;17.80;99.90
13436;DHT22;6790;49.520;8.504;2023-07-31T05:39:04;17.80;99.90
13436;DHT22;6790;49.520;8.504;2023-07-31T05:41:33;17.80;99.90
13436;DHT22;6790;49.520;8.504;2023-07-31T05:44:00;17.80;99.90
13436;DHT22;6790;49.520;8.504;2023-07-31T05:46:26;17.90;99.90
13436;DHT22;6790;49.520;8.504;2023-07-31T05:48:51;17.90;99.90
13436;DHT22;6790;49.520;8.504;2023-07-31T05:51:17;17.90;99.90
13436;DHT22;6790;49.520;8.504;2023-07-31T05:53:43;18.00;99.90
13436;DHT22;6790;49.520;8.504;2023-07-31T05:56:09;18.00;99.90
13436;DHT22;6790;49.520;8.504;2023-07-31T05:58:34;18.10;99.90
13436;DHT22;6790;49.520;8.504;2023-07-31T06:01:00;18.10;99.90
13436;DHT22;6790;49.520;8.504;2023-07-31T06:03:25;18.10;99.90
13436;DHT22;6790;49.520;8.504;2023-07-31T06:05:51;18.10;99.90
13436;DHT22;6790;49.520;8.504;2023-07-31T06:08:17;18.10;99.90
13436;DHT22;6790;49.520;8.504;2023-07-31T06:10:42;18.10;99.90
13436;DHT22;6790;49.520;8.504;2023-07-31T06:13:08;18.10;99.90
13436;DHT22;6790;49.520;8.504;2023-07-31T06:15:34;18.10;99.90
13436;DHT22;6790;49.520;8.504;2023-07-31T06:18:00;18.20;99.90
13436;DHT22;6790;49.520;8.504;2023-07-31T06:20:27;18.20;99.90
13436;DHT22;6790;49.520;8.504;2023-07-31T06:22:53;18.30;99.90
13436;DHT22;6790;49.520;8.504;2023-07-31T06:25:19;18.30;99.90
13436;DHT22;6790;49.520;8.504;2023-07-31T06:27:45;18.30;99.90
13436;DHT22;6790;49.520;8.504;2023-07-31T06:30:11;18.40;99.90
13436;DHT22;6790;49.520;8.504;2023-07-31T06:32:37;18.50;99.90
13436;DHT22;6790;49.520;8.504;2023-07-31T06:35:02;18.60;99.90
13436;DHT22;6790;49.520;8.504;2023-07-31T06:37:28;18.80;99.90
13436;DHT22;6790;49.520;8.504;2023-07-31T06:39:54;18.70;99.90
13436;DHT22;6790;49.520;8.504;2023-07-31T06:42:19;18.60;99.90
13436;DHT22;6790;49.520;8.504;2023-07-31T06:44:46;18.50;99.90
13436;DHT22;6790;49.520;8.504;2023-07-31T06:47:12;18.50;99.90
13436;DHT22;6790;49.520;8.504;2023-07-31T06:49:37;18.50;99.90
13436;DHT22;6790;49.520;8.504;2023-07-31T06:52:03;18.50;99.90
13436;DHT22;6790;49.520;8.504;2023-07-31T06:54:29;18.60;99.90
13436;DHT22;6790;49.520;8.504;2023-07-31T06:56:55;18.50;99.90
13436;DHT22;6790;49.520;8.504;2023-07-31T06:59:20;18.50;99.90
13436;DHT22;6790;49.520;8.504;2023-07-31T07:01:46;18.50;99.90
13436;DHT22;6790;49.520;8.504;2023-07-31T07:04:13;18.70;99.90
13436;DHT22;6790;49.520;8.504;2023-07-31T07:06:39;18.90;99.90
13436;DHT22;6790;49.520;8.504;2023-07-31T07:09:05;19.10;99.90
13436;DHT22;6790;49.520;8.504;2023-07-31T07:11:31;19.30;99.90
13436;DHT22;6790;49.520;8.504;2023-07-31T07:13:58;19.40;99.90
13436;DHT22;6790;49.520;8.504;2023-07-31T07:16:24;19.50;99.90
13436;DHT22;6790;49.520;8.504;2023-07-31T07:18:49;19.60;99.90
13436;DHT22;6790;49.520;8.504;2023-07-31T07:21:15;20.00;99.90
13436;DHT22;6790;49.520;8.504;2023-07-31T07:23:43;20.10;99.90
13436;DHT22;6790;49.520;8.504;2023-07-31T07:26:09;20.20;99.90
13436;DHT22;6790;49.520;8.504;2023-07-31T07:28:34;19.90;99.90
13436;DHT22;6790;49.520;8.504;2023-07-31T07:31:02;19.80;99.90
13436;DHT22;6790;49.520;8.504;2023-07-31T07:33:28;19.60;99.90
13436;DHT22;6790;49.520;8.504;2023-07-31T07:35:54;19.60;99.90
13436;DHT22;6790;49.520;8.504;2023-07-31T07:38:20;19.60;99.90
13436;DHT22;6790;49.520;8.504;2023-07-31T07:40:51;19.70;99.90
13436;DHT22;6790;49.520;8.504;2023-07-31T07:43:18;19.70;99.90
13436;DHT22;6790;49.520;8.504;2023-07-31T07:45:44;19.70;99.90
13436;DHT22;6790;49.520;8.504;2023-07-31T07:48:09;20.00;99.90
13436;DHT22;6790;49.520;8.504;2023-07-31T07:50:35;20.40;99.90
13436;DHT22;6790;49.520;8.504;2023-07-31T07:53:03;20.70;99.90
13436;DHT22;6790;49.520;8.504;2023-07-31T07:55:29;20.80;99.90
13436;DHT22;6790;49.520;8.504;2023-07-31T07:57:57;20.90;99.90
13436;DHT22;6790;49.520;8.504;2023-07-31T08:00:23;21.00;99.90
13436;DHT22;6790;49.520;8.504;2023-07-31T08:02:49;21.10;99.90
13436;DHT22;6790;49.520;8.504;2023-07-31T08:05:15;21.10;99.90
13436;DHT22;6790;49.520;8.504;2023-07-31T08:07:42;21.20;99.90
13436;DHT22;6790;49.520;8.504;2023-07-31T08:10:08;21.20;99.90
13436;DHT22;6790;49.520;8.504;2023-07-31T08:12:34;21.20;99.90
13436;DHT22;6790;49.520;8.504;2023-07-31T08:15:00;21.10;99.90
13436;DHT22;6790;49.520;8.504;2023-07-31T08:17:27;21.20;99.90
13436;DHT22;6790;49.520;8.504;2023-07-31T08:19:52;21.20;99.90
13436;DHT22;6790;49.520;8.504;2023-07-31T08:22:19;21.50;99.90
13436;DHT22;6790;49.520;8.504;2023-07-31T08:24:45;21.80;99.90
13436;DHT22;6790;49.520;8.504;2023-07-31T08:27:11;21.90;99.90
13436;DHT22;6790;49.520;8.504;2023-07-31T08:29:36;21.90;99.90
13436;DHT22;6790;49.520;8.504;2023-07-31T08:32:02;21.90;99.90
13436;DHT22;6790;49.520;8.504;2023-07-31T08:34:28;21.60;99.90
13436;DHT22;6790;49.520;8.504;2023-07-31T08:36:54;21.80;99.90
13436;DHT22;6790;49.520;8.504;2023-07-31T08:39:19;22.00;99.90
13436;DHT22;6790;49.520;8.504;2023-07-31T08:41:45;22.00;99.90
13436;DHT22;6790;49.520;8.504;2023-07-31T08:44:11;22.20;99.90
13436;DHT22;6790;49.520;8.504;2023-07-31T08:46:38;22.40;99.90
13436;DHT22;6790;49.520;8.504;2023-07-31T08:49:05;22.40;99.90
13436;DHT22;6790;49.520;8.504;2023-07-31T08:51:34;22.30;99.90
13436;DHT22;6790;49.520;8.504;2023-07-31T08:54:01;22.30;99.90
13436;DHT22;6790;49.520;8.504;2023-07-31T08:56:28;21.80;99.90
13436;DHT22;6790;49.520;8.504;2023-07-31T08:58:54;21.60;99.90
13436;DHT22;6790;49.520;8.504;2023-07-31T09:01:21;21.30;99.90
13436;DHT22;6790;49.520;8.504;2023-07-31T09:03:47;21.10;99.90
13436;DHT22;6790;49.520;8.504;2023-07-31T09:06:16;21.30;99.90
13436;DHT22;6790;49.520;8.504;2023-07-31T09:08:44;21.50;99.90
13436;DHT22;6790;49.520;8.504;2023-07-31T09:11:09;21.60;99.90
13436;DHT22;6790;49.520;8.504;2023-07-31T09:13:37;21.60;99.90
13436;DHT22;6790;49.520;8.504;2023-07-31T09:16:05;21.60;99.90
13436;DHT22;6790;49.520;8.504;2023-07-31T09:18:31;22.20;99.90
13436;DHT22;6790;49.520;8.504;2023-07-31T09:21:04;22.50;99.90
13436;DHT22;6790;49.520;8.504;2023-07-31T09:23:44;22.00;99.90
13436;DHT22;6790;49.520;8.504;2023-07-31T09:26:11;21.70;99.90
13436;DHT22;6790;49.520;8.504;2023-07-31T09:28:54;21.70;99.90
13436;DHT22;6790;49.520;8.504;2023-07-31T09:31:32;22.00;99.90
13436;DHT22;6790;49.520;8.504;2023-07-31T09:34:07;22.40;99.90
13436;DHT22;6790;49.520;8.504;2023-07-31T09:36:46;22.70;99.90
13436;DHT22;6790;49.520;8.504;2023-07-31T09:39:15;22.60;99.90
13436;DHT22;6790;49.520;8.504;2023-07-31T09:41:44;22.40;99.90
13436;DHT22;6790;49.520;8.504;2023-07-31T09:44:13;22.20;99.90
13436;DHT22;6790;49.520;8.504;2023-07-31T09:46:38;21.80;99.90
13436;DHT22;6790;49.520;8.504;2023-07-31T09:49:05;21.60;99.90
13436;DHT22;6790;49.520;8.504;2023-07-31T09:51:31;21.60;99.90
13436;DHT22;6790;49.520;8.504;2023-07-31T09:53:57;21.70;99.90
13436;DHT22;6790;49.520;8.504;2023-07-31T09:56:23;21.70;99.90
13436;DHT22;6790;49.520;8.504;2023-07-31T09:58:49;21.70;99.90
13436;DHT22;6790;49.520;8.504;2023-07-31T10:01:16;21.60;99.90
13436;DHT22;6790;49.520;8.504;2023-07-31T10:03:44;21.60;99.90
13436;DHT22;6790;49.520;8.504;2023-07-31T10:06:11;21.60;99.90
13436;DHT22;6790;49.520;8.504;2023-07-31T10:08:39;21.60;99.90
13436;DHT22;6790;49.520;8.504;2023-07-31T10:11:06;21.70;99.90
13436;DHT22;6790;49.520;8.504;2023-07-31T10:13:33;21.60;99.90
13436;DHT22;6790;49.520;8.504;2023-07-31T10:16:00;21.70;99.90
13436;DHT22;6790;49.520;8.504;2023-07-31T10:18:28;21.70;99.90
13436;DHT22;6790;49.520;8.504;2023-07-31T10:20:55;21.70;99.90
13436;DHT22;6790;49.520;8.504;2023-07-31T10:23:22;22.00;99.90
13436;DHT22;6790;49.520;8.504;2023-07-31T10:25:50;22.10;99.90
13436;DHT22;6790;49.520;8.504;2023-07-31T10:28:18;22.20;99.90
13436;DHT22;6790;49.520;8.504;2023-07-31T10:30:44;22.20;99.90
13436;DHT22;6790;49.520;8.504;2023-07-31T10:33:10;22.20;99.90
13436;DHT22;6790;49.520;8.504;2023-07-31T10:35:36;22.10;99.90
13436;DHT22;6790;49.520;8.504;2023-07-31T10:38:20;22.20;99.90
13436;DHT22;6790;49.520;8.504;2023-07-31T10:40:49;22.50;99.90
13436;DHT22;6790;49.520;8.504;2023-07-31T10:43:25;22.30;99.90
13436;DHT22;6790;49.520;8.504;2023-07-31T10:45:53;22.10;99.90
13436;DHT22;6790;49.520;8.504;2023-07-31T10:48:19;22.40;99.90
13436;DHT22;6790;49.520;8.504;2023-07-31T10:50:51;22.90;99.90
13436;DHT22;6790;49.520;8.504;2023-07-31T10:53:30;22.70;99.90
13436;DHT22;6790;49.520;8.504;2023-07-31T10:56:07;22.70;99.90
13436;DHT22;6790;49.520;8.504;2023-07-31T10:58:35;22.50;99.90
13436;DHT22;6790;49.520;8.504;2023-07-31T11:01:03;22.40;99.90
13436;DHT22;6790;49.520;8.504;2023-07-31T11:03:50;22.30;99.90
13436;DHT22;6790;49.520;8.504;2023-07-31T11:06:19;22.40;99.90
13436;DHT22;6790;49.520;8.504;2023-07-31T11:08:47;22.40;99.90
13436;DHT22;6790;49.520;8.504;2023-07-31T11:11:18;22.40;98.00
13436;DHT22;6790;49.520;8.504;2023-07-31T11:13:49;22.40;99.90
13436;DHT22;6790;49.520;8.504;2023-07-31T11:18:54;22.70;99.90
13436;DHT22;6790;49.520;8.504;2023-07-31T11:21:23;22.70;99.90
13436;DHT22;6790;49.520;8.504;2023-07-31T11:23:51;22.60;99.90
13436;DHT22;6790;49.520;8.504;2023-07-31T11:26:18;22.60;99.90
13436;DHT22;6790;49.520;8.504;2023-07-31T11:28:50;22.60;99.50
13436;DHT22;6790;49.520;8.504;2023-07-31T11:31:17;22.70;99.90
13436;DHT22;6790;49.520;8.504;2023-07-31T11:33:44;22.70;99.90
13436;DHT22;6790;49.520;8.504;2023-07-31T11:36:17;22.50;99.90
13436;DHT22;6790;49.520;8.504;2023-07-31T11:38:44;22.30;99.90
13436;DHT22;6790;49.520;8.504;2023-07-31T11:41:10;22.10;99.90
13436;DHT22;6790;49.520;8.504;2023-07-31T11:43:35;21.90;99.90
13436;DHT22;6790;49.520;8.504;2023-07-31T11:46:04;21.70;99.90
13436;DHT22;6790;49.520;8.504;2023-07-31T11:48:33;21.70;99.90
13436;DHT22;6790;49.520;8.504;2023-07-31T11:51:06;21.80;99.90
13436;DHT22;6790;49.520;8.504;2023-07-31T11:53:44;21.90;99.90
13436;DHT22;6790;49.520;8.504;2023-07-31T11:56:13;21.90;99.90
13436;DHT22;6790;49.520;8.504;2023-07-31T11:58:47;21.80;99.90
13436;DHT22;6790;49.520;8.504;2023-07-31T12:01:15;21.80;99.90
13436;DHT22;6790;49.520;8.504;2023-07-31T12:03:45;21.80;99.90
13436;DHT22;6790;49.520;8.504;2023-07-31T12:06:12;21.90;99.90
13436;DHT22;6790;49.520;8.504;2023-07-31T12:08:37;21.90;99.90
13436;DHT22;6790;49.520;8.504;2023-07-31T12:11:05;22.00;99.90
13436;DHT22;6790;49.520;8.504;2023-07-31T12:13:40;21.90;99.90
13436;DHT22;6790;49.520;8.504;2023-07-31T12:16:06;22.00;99.90
13436;DHT22;6790;49.520;8.504;2023-07-31T12:18:39;22.10;99.90
13436;DHT22;6790;49.520;8.504;2023-07-31T12:21:07;22.20;99.90
13436;DHT22;6790;49.520;8.504;2023-07-31T12:23:36;22.30;99.90
13436;DHT22;6790;49.520;8.504;2023-07-31T12:26:16;22.30;99.90
13436;DHT22;6790;49.520;8.504;2023-07-31T12:28:43;22.30;99.90
13436;DHT22;6790;49.520;8.504;2023-07-31T12:31:11;22.20;99.90
13436;DHT22;6790;49.520;8.504;2023-07-31T12:33:40;22.20;99.90
13436;DHT22;6790;49.520;8.504;2023-07-31T12:36:12;22.20;99.90
13436;DHT22;6790;49.520;8.504;2023-07-31T12:38:39;22.10;99.90
13436;DHT22;6790;49.520;8.504;2023-07-31T12:41:05;22.20;99.90
13436;DHT22;6790;49.520;8.504;2023-07-31T12:43:36;22.10;99.90
13436;DHT22;6790;49.520;8.504;2023-07-31T12:46:03;22.00;99.90
13436;DHT22;6790;49.520;8.504;2023-07-31T12:48:29;22.00;99.90
13436;DHT22;6790;49.520;8.504;2023-07-31T12:50:55;22.10;99.20
13436;DHT22;6790;49.520;8.504;2023-07-31T12:53:20;22.20;99.50
13436;DHT22;6790;49.520;8.504;2023-07-31T12:55:46;22.30;99.60
13436;DHT22;6790;49.520;8.504;2023-07-31T12:58:12;22.40;98.00
13436;DHT22;6790;49.520;8.504;2023-07-31T13:00:38;22.50;99.90
13436;DHT22;6790;49.520;8.504;2023-07-31T13:03:04;22.60;99.90
13436;DHT22;6790;49.520;8.504;2023-07-31T13:05:29;22.70;99.90
13436;DHT22;6790;49.520;8.504;2023-07-31T13:07:55;22.80;99.90
13436;DHT22;6790;49.520;8.504;2023-07-31T13:10:22;23.00;99.90
13436;DHT22;6790;49.520;8.504;2023-07-31T13:12:48;23.10;99.90
13436;DHT22;6790;49.520;8.504;2023-07-31T13:15:14;23.10;99.90
13436;DHT22;6790;49.520;8.504;2023-07-31T13:17:39;22.90;99.90
13436;DHT22;6790;49.520;8.504;2023-07-31T13:20:05;22.80;99.90
13436;DHT22;6790;49.520;8.504;2023-07-31T13:22:32;22.70;99.90
13436;DHT22;6790;49.520;8.504;2023-07-31T13:24:57;22.60;99.90
13436;DHT22;6790;49.520;8.504;2023-07-31T13:27:23;22.60;99.90
13436;DHT22;6790;49.520;8.504;2023-07-31T13:29:50;22.60;99.70
13436;DHT22;6790;49.520;8.504;2023-07-31T13:32:20;22.60;99.90
13436;DHT22;6790;49.520;8.504;2023-07-31T13:34:47;22.60;99.90
13436;DHT22;6790;49.520;8.504;2023-07-31T13:37:14;22.60;99.90
13436;DHT22;6790;49.520;8.504;2023-07-31T13:39:40;22.60;99.30
13436;DHT22;6790;49.520;8.504;2023-07-31T13:42:07;22.70;99.90
13436;DHT22;6790;49.520;8.504;2023-07-31T13:44:34;22.70;99.90
13436;DHT22;6790;49.520;8.504;2023-07-31T13:47:00;22.60;99.90
13436;DHT22;6790;49.520;8.504;2023-07-31T13:49:27;22.60;99.90
13436;DHT22;6790;49.520;8.504;2023-07-31T13:51:52;22.50;99.90
13436;DHT22;6790;49.520;8.504;2023-07-31T13:54:18;22.50;99.90
13436;DHT22;6790;49.520;8.504;2023-07-31T13:56:44;22.40;99.90
13436;DHT22;6790;49.520;8.504;2023-07-31T13:59:10;22.40;99.90
13436;DHT22;6790;49.520;8.504;2023-07-31T14:01:37;22.40;99.90
13436;DHT22;6790;49.520;8.504;2023-07-31T14:04:03;22.30;99.90
13436;DHT22;6790;49.520;8.504;2023-07-31T14:06:29;22.40;99.90
13436;DHT22;6790;49.520;8.504;2023-07-31T14:08:54;22.40;99.90
13436;DHT22;6790;49.520;8.504;2023-07-31T14:11:22;22.30;99.90
13436;DHT22;6790;49.520;8.504;2023-07-31T14:13:49;22.30;99.90
13436;DHT22;6790;49.520;8.504;2023-07-31T14:16:15;22.30;99.90
13436;DHT22;6790;49.520;8.504;2023-07-31T14:18:41;22.30;99.90
13436;DHT22;6790;49.520;8.504;2023-07-31T14:21:07;22.30;99.90
13436;DHT22;6790;49.520;8.504;2023-07-31T14:23:33;22.30;99.90
13436;DHT22;6790;49.520;8.504;2023-07-31T14:25:59;22.40;99.90
13436;DHT22;6790;49.520;8.504;2023-07-31T14:28:24;22.60;99.90
13436;DHT22;6790;49.520;8.504;2023-07-31T14:30:50;22.70;99.90
13436;DHT22;6790;49.520;8.504;2023-07-31T14:33:16;22.80;99.90
13436;DHT22;6790;49.520;8.504;2023-07-31T14:35:42;22.80;99.90
13436;DHT22;6790;49.520;8.504;2023-07-31T14:38:07;22.80;99.90
13436;DHT22;6790;49.520;8.504;2023-07-31T14:40:33;22.80;99.90
13436;DHT22;6790;49.520;8.504;2023-07-31T14:42:59;22.70;99.90
13436;DHT22;6790;49.520;8.504;2023-07-31T14:45:24;22.60;99.90
13436;DHT22;6790;49.520;8.504;2023-07-31T14:47:50;22.60;99.90
13436;DHT22;6790;49.520;8.504;2023-07-31T14:50:16;22.40;99.90
13436;DHT22;6790;49.520;8.504;2023-07-31T14:52:42;22.40;99.90
13436;DHT22;6790;49.520;8.504;2023-07-31T14:55:08;22.50;99.90
13436;DHT22;6790;49.520;8.504;2023-07-31T14:57:34;22.50;99.90
13436;DHT22;6790;49.520;8.504;2023-07-31T15:00:00;22.50;99.90
13436;DHT22;6790;49.520;8.504;2023-07-31T15:02:26;22.50;99.90
13436;DHT22;6790;49.520;8.504;2023-07-31T15:04:53;22.60;99.90
13436;DHT22;6790;49.520;8.504;2023-07-31T15:07:18;22.70;99.90
13436;DHT22;6790;49.520;8.504;2023-07-31T15:09:44;22.70;99.90
13436;DHT22;6790;49.520;8.504;2023-07-31T15:12:10;22.70;99.90
13436;DHT22;6790;49.520;8.504;2023-07-31T15:14:35;22.70;99.90
13436;DHT22;6790;49.520;8.504;2023-07-31T15:17:01;22.80;99.90
13436;DHT22;6790;49.520;8.504;2023-07-31T15:19:27;22.90;99.90
13436;DHT22;6790;49.520;8.504;2023-07-31T15:21:52;22.90;99.90
13436;DHT22;6790;49.520;8.504;2023-07-31T15:24:18;22.90;98.90
13436;DHT22;6790;49.520;8.504;2023-07-31T15:26:45;22.90;99.20
13436;DHT22;6790;49.520;8.504;2023-07-31T15:29:11;22.90;99.60
13436;DHT22;6790;49.520;8.504;2023-07-31T15:31:43;22.80;99.90
13436;DHT22;6790;49.520;8.504;2023-07-31T15:34:09;22.70;99.50
13436;DHT22;6790;49.520;8.504;2023-07-31T15:36:34;22.60;99.90
13436;DHT22;6790;49.520;8.504;2023-07-31T15:39:00;22.60;99.90
13436;DHT22;6790;49.520;8.504;2023-07-31T15:41:26;22.60;99.90
13436;DHT22;6790;49.520;8.504;2023-07-31T15:43:52;22.60;99.90
13436;DHT22;6790;49.520;8.504;2023-07-31T15:46:18;22.60;99.90
13436;DHT22;6790;49.520;8.504;2023-07-31T15:48:44;22.60;99.90
13436;DHT22;6790;49.520;8.504;2023-07-31T15:51:10;22.60;99.90